Airfield :
LOGIN :

Register | Disclaimer

   EN    FR    IT 

 










Legend :    VFR   Marginal VFR   IFR   Intensive IFR   Very Intensive IFR
Visi :
Ceiling :
>= 8 km
>= 3000ft
5 to 8 km
1000 to 3000 ft
1500m to 5 km
500 to 1000 ft
800 to 1500m
200 to 500 ft
< 800m
< 200 ft
Symbols :   Thunderstorms  Fog  Heavy snow  Heavy precipitations  Wind > 20 kt
SIGMETs :     Misc.  Thunderstorms  Icing  Turbulence  Mountain Waves  Volcanic Ashes







- Airport Elevation : 16 ft
- IATA code : AAE


DABB - Annaba-Rabah Bitat

CURRENT METAR :
  • 200730Z 23004KT 9999 FEW026 BKN200 27/21 Q1017

EXPIRED METARs :
  • 200700Z 23004KT 9999 FEW026 BKN200 25/22 Q1017
  • 200630Z 21003KT 9999 FEW026 SCT200 24/21 Q1017
  • 200600Z 21003KT 9999 FEW026 SCT200 22/20 Q1017
  • 200530Z 20003KT CAVOK 22/20 Q1016
  • 200500Z 25002KT CAVOK 21/20 Q1016
  • 200430Z 20004KT 9999 FEW023 22/20 Q1016

TAF TAF DABB
Valid from the 20 at 06:00 until the 21 at 06:00 UTC


200500Z 2006/2106 VRB02KT 9999 FEW023
TEMPO 2006/2009 2000 BR SCT008
BECMG 2010/2012 36014KT
PROB30
TEMPO 2012/2018 FEW020TCU
BECMG 2020/2022 26005KT
No reported NOTAMs for that airfield.



MET'MAP, your aeronautical weather chart ! - Copyright ORBIFLY December 2007 - Disclaimer

ORBIFLY MET'MAP TEAM :

Programming & Development : Alexandra Zaïnal
Concept & Development : Baudouin d'Aumeries
Co-Development & Prog : Marc-Olivier Méhu
Technical & hardware support : Manuel Goepfert

Contact : metmap@orbifly.com




SOURCES & CREDITS :

   NOAA